North Palm Beach, FL (33408)

10:03 AM EDT on August 02, 2015 (GMT -0400)
Juno Isles | | Change Station
CLOSE
Current Station
Personal Weather Station
Location: N Palm Beach, FL
Elevation: 39 ft
Nearby Weather Stations

Elev 39 ft 26.86 °N, 80.06 °W | Updated 11 minutes ago

Overcast
Overcast
88.0 °F
Feels Like 97 °F
N
4.7
Wind Variable Wind from SSE

Today
High -- | Low -- °F
--% Chance of Precip.
Yesterday
High -- | Low -- °F
Precip. -- in
6:45 AM 8:07 PM
Waning Gibbous, 94% visible
Pressure 29.99 in
Visibility 10.0 miles
Clouds Few 2500 ft
Mostly Cloudy 15000 ft
Mostly Cloudy 20000 ft
Heat Index 97 °F
Dew Point 74 °F
Humidity 64%
Rainfall 0.00 in
Snow Depth Not available.
UV 4 out of 12
Pollen 3.40 out of 12
Air Quality Not available.
Flu Activity Not available.
METAR KPBI 021353Z 18006KT 10SM FEW025 BKN150 BKN200 29/24 A2999 RMK AO2 SLP153 T02890239

More Conditions Fewer Conditions

Pressure 29.99 in
Visibility 10.0 miles
Clouds Few 2500 ft
Mostly Cloudy 15000 ft
Mostly Cloudy 20000 ft
Heat Index 97 °F
Dew Point 74 °F
Humidity 64%
Rainfall 0.00 in
Snow Depth Not available.
UV 4 out of 12
Pollen 3.40 out of 12
Air Quality Not available.
Flu Activity Not available.
METAR KPBI 021353Z 18006KT 10SM FEW025 BKN150 BKN200 29/24 A2999 RMK AO2 SLP153 T02890239

More Conditions Fewer Conditions

10-Day Weather Forecast

×

Almanac

Astronomy

Aug. 02, 2015 Rise Set
Actual Time
Civil Twilight
Nautical Twilight
Astronomical Twilight
Moon
Length of Visible Light
Length of Day
Tomorrow will be .
, % of the Moon is Illuminated

Today's Extremes

State Highs State Lows

Community

WunderPhotos

Upload Photos

1,843,256 photos uploaded!

WunderBlogs® & News

Nearby

Air Quality

  Air Quality AQ Index Pollutant
Not available.

Snow Depth

Station Depth Elevation

Earthquake Activity

City Distance Mag. Time & Date
Minimum magnitude displayed is 2.5.

Coastal Water Temperatures

Place Temperature

Stations

Nearby Weather Stations

Station Location Temp. Windchill Dew Point Humidity Wind Precip. Elev Updated Type